createdAt,value
2023-04-04T06:18:37.204Z,8.51
2023-04-04T06:21:04.120Z,8.56
2023-04-04T06:23:31.202Z,8.40
2023-04-04T06:25:58.074Z,8.41
2023-04-04T06:28:25.314Z,8.43
2023-04-04T06:30:52.084Z,8.55
2023-04-04T06:33:18.913Z,8.72
2023-04-04T06:35:46.058Z,8.56
2023-04-04T06:38:13.431Z,8.59
2023-04-04T06:40:40.559Z,8.65
2023-04-04T06:43:07.552Z,8.68
2023-04-04T06:45:36.034Z,8.64
2023-04-04T06:48:03.707Z,8.63
2023-04-04T06:50:32.685Z,8.67
2023-04-04T06:53:01.296Z,8.65
2023-04-04T06:55:28.640Z,8.88
2023-04-04T06:57:55.623Z,9.01
2023-04-04T07:00:22.730Z,8.96
2023-04-04T07:02:50.604Z,9.06
2023-04-04T07:05:19.016Z,9.24
2023-04-04T07:07:47.192Z,9.27
2023-04-04T07:10:13.978Z,9.26
2023-04-04T07:12:41.374Z,9.17
2023-04-04T07:15:09.315Z,9.25
2023-04-04T07:17:39.139Z,9.33
2023-04-04T07:20:07.333Z,9.29
2023-04-04T07:22:38.341Z,9.35
2023-04-04T07:25:05.804Z,9.40
2023-04-04T07:27:32.724Z,9.53
2023-04-04T07:29:59.566Z,9.62
2023-04-04T07:32:26.411Z,9.68
2023-04-04T07:34:53.811Z,9.73
2023-04-04T07:37:22.070Z,9.74
2023-04-04T07:39:50.202Z,9.85
2023-04-04T07:42:23.157Z,9.98
2023-04-04T07:44:50.666Z,9.97
2023-04-04T07:47:18.084Z,10.02
2023-04-04T07:49:45.489Z,10.12
2023-04-04T07:52:12.674Z,10.11
2023-04-04T07:54:40.562Z,10.06
2023-04-04T07:57:10.078Z,10.18
2023-04-04T07:59:37.930Z,10.27
2023-04-04T08:02:05.711Z,10.34
2023-04-04T08:04:32.746Z,10.39
2023-04-04T08:06:59.542Z,10.44
2023-04-04T08:09:26.368Z,10.51
2023-04-04T08:11:53.220Z,10.55
2023-04-04T08:14:20.023Z,10.66
2023-04-04T08:16:46.819Z,10.71
2023-04-04T08:19:14.167Z,10.85
2023-04-04T08:21:41.235Z,10.87
2023-04-04T08:24:08.202Z,10.90
2023-04-04T08:26:35.017Z,10.96
2023-04-04T08:29:02.264Z,11.02
2023-04-04T08:31:29.898Z,11.07
2023-04-04T08:33:57.126Z,11.15
2023-04-04T08:36:24.420Z,11.23
2023-04-04T08:38:51.416Z,11.30
2023-04-04T08:41:18.716Z,11.33
2023-04-04T08:43:54.515Z,11.42
2023-04-04T08:46:25.446Z,11.50
2023-04-04T08:48:53.139Z,11.57
2023-04-04T08:51:20.594Z,11.63
2023-04-04T08:53:47.559Z,11.70
2023-04-04T08:56:14.760Z,11.76
2023-04-04T08:58:41.617Z,11.84
2023-04-04T09:01:08.754Z,11.90
2023-04-04T09:03:36.964Z,11.97
2023-04-04T09:06:04.833Z,12.06
2023-04-04T09:08:32.272Z,12.10
2023-04-04T09:11:02.951Z,12.13
2023-04-04T09:13:29.953Z,12.18
2023-04-04T09:15:57.664Z,12.21
2023-04-04T09:18:24.490Z,12.26
2023-04-04T09:20:51.540Z,12.30
2023-04-04T09:23:23.966Z,12.36
2023-04-04T09:26:03.403Z,12.41
2023-04-04T09:28:32.054Z,12.47
2023-04-04T09:31:03.234Z,12.49
2023-04-04T09:33:32.323Z,12.54
2023-04-04T09:36:08.102Z,12.59
2023-04-04T09:38:38.820Z,12.65
2023-04-04T09:41:12.148Z,12.69
2023-04-04T09:43:40.047Z,12.73
2023-04-04T09:46:07.927Z,12.77
2023-04-04T09:48:36.441Z,12.81
2023-04-04T09:51:07.850Z,12.85
2023-04-04T09:53:37.401Z,12.89
2023-04-04T09:56:04.841Z,12.93
2023-04-04T09:58:36.242Z,12.97
2023-04-04T10:01:05.199Z,13.02
2023-04-04T10:03:32.497Z,13.06
2023-04-04T10:06:07.811Z,13.10
2023-04-04T10:08:35.688Z,13.14
2023-04-04T10:11:11.773Z,13.20
2023-04-04T10:13:42.029Z,13.24
2023-04-04T10:16:11.200Z,13.28
2023-04-04T10:18:38.512Z,13.32
2023-04-04T10:23:37.250Z,13.42
2023-04-04T10:26:04.101Z,13.46
2023-04-04T10:28:31.416Z,13.49
2023-04-04T10:31:08.218Z,13.52
2023-04-04T10:33:50.187Z,13.57
2023-04-04T10:36:21.800Z,13.60
2023-04-04T10:38:55.808Z,13.62
2023-04-04T10:41:23.385Z,13.67
2023-04-04T10:43:52.197Z,13.69
2023-04-04T10:46:21.450Z,13.73
2023-04-04T10:48:49.087Z,13.75
2023-04-04T10:51:16.432Z,13.78
2023-04-04T10:53:43.807Z,13.80
2023-04-04T10:56:10.858Z,13.82
2023-04-04T10:58:44.009Z,13.84
2023-04-04T11:01:12.416Z,13.87
2023-04-04T11:04:20.073Z,13.89
2023-04-04T11:07:19.066Z,13.92
2023-04-04T11:10:16.405Z,13.96
2023-04-04T11:12:46.002Z,13.99
2023-04-04T11:15:14.696Z,14.02
2023-04-04T11:17:52.952Z,14.06
2023-04-04T11:20:30.656Z,14.10
2023-04-04T11:23:09.012Z,14.14
2023-04-04T11:25:39.917Z,14.18
2023-04-04T11:28:09.748Z,14.25
2023-04-04T11:30:38.684Z,14.29
2023-04-04T11:33:07.749Z,14.35
2023-04-04T11:35:39.233Z,14.37
2023-04-04T11:38:13.844Z,14.43
2023-04-04T11:40:41.954Z,14.48
2023-04-04T11:43:12.575Z,14.53
2023-04-04T11:45:45.875Z,14.56
2023-04-04T11:48:14.744Z,14.60
2023-04-04T11:50:42.491Z,14.64
2023-04-04T11:53:10.542Z,14.67
2023-04-04T11:55:43.030Z,14.71
2023-04-04T11:58:13.029Z,14.75
2023-04-04T12:00:41.729Z,14.81
2023-04-04T12:03:11.728Z,14.85
2023-04-04T12:05:40.450Z,14.88
2023-04-04T12:08:09.261Z,14.90
2023-04-04T12:10:37.246Z,14.92
2023-04-04T12:13:08.852Z,14.93
2023-04-04T12:15:37.261Z,14.94
2023-04-04T12:18:08.781Z,14.93
2023-04-04T12:20:40.450Z,14.92
2023-04-04T12:23:07.624Z,14.90
2023-04-04T12:25:35.436Z,14.91
2023-04-04T12:28:03.861Z,14.87
2023-04-04T12:30:31.366Z,14.84
2023-04-04T12:32:59.071Z,14.83
2023-04-04T12:35:26.309Z,14.80
2023-04-04T12:38:01.897Z,14.79
2023-04-04T12:40:37.885Z,14.77
2023-04-04T12:43:09.299Z,14.75
2023-04-04T12:45:40.924Z,14.75
2023-04-04T12:48:11.633Z,14.76
2023-04-04T12:50:50.897Z,14.78
2023-04-04T12:53:29.059Z,14.79
2023-04-04T12:56:01.704Z,14.82
2023-04-04T12:58:29.121Z,14.84
2023-04-04T13:01:00.030Z,14.85
2023-04-04T13:03:30.214Z,14.88
2023-04-04T13:06:01.090Z,14.92
2023-04-04T13:08:28.640Z,14.96
2023-04-04T13:11:05.048Z,14.99
2023-04-04T13:13:33.984Z,15.02
2023-04-04T13:16:01.108Z,15.02
2023-04-04T13:18:38.384Z,15.05
2023-04-04T13:21:07.343Z,15.05
2023-04-04T13:23:35.814Z,15.06
2023-04-04T13:26:04.372Z,15.08
2023-04-04T13:28:31.448Z,15.10
2023-04-04T13:30:58.457Z,15.11
2023-04-04T13:33:25.441Z,15.13
2023-04-04T13:35:52.515Z,15.11
2023-04-04T13:38:19.321Z,15.11
2023-04-04T13:40:46.565Z,15.13
2023-04-04T13:43:15.280Z,15.14
2023-04-04T13:45:46.704Z,15.15
2023-04-04T13:48:13.966Z,15.16
2023-04-04T13:50:43.720Z,15.18
2023-04-04T13:53:11.291Z,15.18
2023-04-04T13:55:56.927Z,15.19
2023-04-04T13:58:26.174Z,15.21
2023-04-04T14:00:52.956Z,15.22
2023-04-04T14:03:19.902Z,15.22
2023-04-04T14:05:46.945Z,15.24
2023-04-04T14:08:14.812Z,15.26
2023-04-04T14:10:41.876Z,15.26
2023-04-04T14:13:08.693Z,15.26
2023-04-04T14:15:35.752Z,15.27
2023-04-04T14:18:02.612Z,15.28
2023-04-04T14:20:29.538Z,15.29
2023-04-04T14:22:56.421Z,15.32
2023-04-04T14:25:23.244Z,15.33
2023-04-04T14:27:50.098Z,15.36
2023-04-04T14:30:17.144Z,15.37
2023-04-04T14:32:43.996Z,15.38
2023-04-04T14:35:10.858Z,15.39
2023-04-04T14:37:37.902Z,15.39
2023-04-04T14:40:06.063Z,15.39
2023-04-04T14:42:32.892Z,15.37
2023-04-04T14:45:02.519Z,15.36
2023-04-04T14:47:29.419Z,15.34
2023-04-04T14:49:56.447Z,15.33
2023-04-04T14:52:23.221Z,15.30
2023-04-04T14:54:50.183Z,15.29
2023-04-04T14:57:17.857Z,15.28
2023-04-04T14:59:44.692Z,15.26
2023-04-04T15:02:11.633Z,15.25
2023-04-04T15:04:38.667Z,15.25
2023-04-04T15:07:05.638Z,15.23
2023-04-04T15:09:32.473Z,15.19
2023-04-04T15:11:59.404Z,15.18
2023-04-04T15:14:26.258Z,15.15
2023-04-04T15:16:54.082Z,15.13
2023-04-04T15:19:21.144Z,15.10
2023-04-04T15:21:49.050Z,15.08
2023-04-04T15:24:16.065Z,15.06
2023-04-04T15:26:43.754Z,15.05
2023-04-04T15:29:12.138Z,15.04
2023-04-04T15:31:39.079Z,15.04
2023-04-04T15:34:06.192Z,15.03
2023-04-04T15:36:34.230Z,15.02
2023-04-04T15:39:01.250Z,15.02
2023-04-04T15:41:29.225Z,15.02
2023-04-04T15:43:56.142Z,15.02
2023-04-04T15:46:23.078Z,15.00
2023-04-04T15:48:52.150Z,14.98
2023-04-04T15:51:19.979Z,14.97
2023-04-04T15:53:46.823Z,14.95
2023-04-04T15:56:14.184Z,14.94
2023-04-04T15:58:41.034Z,14.92
2023-04-04T16:01:08.012Z,14.90
2023-04-04T16:03:35.071Z,14.88
2023-04-04T16:06:01.987Z,14.87
2023-04-04T16:08:28.777Z,14.85
2023-04-04T16:10:57.898Z,14.83
2023-04-04T16:13:24.867Z,14.82
2023-04-04T16:15:51.778Z,14.80
2023-04-04T16:18:18.770Z,14.78
2023-04-04T16:20:45.624Z,14.77
2023-04-04T16:23:12.465Z,14.74
2023-04-04T16:25:39.293Z,14.73
2023-04-04T16:28:06.926Z,14.69
2023-04-04T16:30:33.696Z,14.70
2023-04-04T16:33:00.551Z,14.67
2023-04-04T16:35:27.831Z,14.64
2023-04-04T16:37:55.531Z,14.61
2023-04-04T16:40:22.363Z,14.61
2023-04-04T16:42:49.210Z,14.57
2023-04-04T16:45:16.613Z,14.55
2023-04-04T16:47:43.448Z,14.53
2023-04-04T16:50:10.840Z,14.53
2023-04-04T16:52:37.651Z,14.50
2023-04-04T16:55:04.946Z,14.49
2023-04-04T16:57:31.871Z,14.46
2023-04-04T16:59:58.775Z,14.45
2023-04-04T17:02:25.733Z,14.45
2023-04-04T17:04:53.398Z,14.46
2023-04-04T17:07:21.362Z,14.46
2023-04-04T17:09:48.881Z,14.45
2023-04-04T17:12:15.839Z,14.42
2023-04-04T17:14:42.718Z,14.40
2023-04-04T17:17:10.549Z,14.37
2023-04-04T17:19:38.965Z,14.33
2023-04-04T17:22:06.190Z,14.33
2023-04-04T17:24:33.437Z,14.31
2023-04-04T17:27:01.652Z,14.27
2023-04-04T17:29:29.003Z,14.25
2023-04-04T17:31:56.903Z,14.24
2023-04-04T17:34:24.318Z,14.21
2023-04-04T17:36:52.284Z,14.20
2023-04-04T17:39:19.292Z,14.18
2023-04-04T17:41:49.698Z,14.15
2023-04-04T17:44:17.761Z,14.13
2023-04-04T17:46:45.295Z,14.12
2023-04-04T17:49:12.648Z,14.11
2023-04-04T17:51:39.514Z,14.10
2023-04-04T17:54:06.936Z,14.09
2023-04-04T17:56:33.771Z,14.07
2023-04-04T17:59:01.056Z,14.06
2023-04-04T18:01:29.589Z,14.04
2023-04-04T18:03:57.913Z,14.03
2023-04-04T18:06:24.913Z,14.02
2023-04-04T18:08:51.716Z,13.99
2023-04-04T18:11:18.664Z,13.98
2023-04-04T18:13:45.944Z,13.97
2023-04-04T18:16:13.000Z,13.94
2023-04-04T18:18:41.029Z,13.93
2023-04-04T18:21:08.688Z,13.91
2023-04-04T18:23:35.773Z,13.89
2023-04-04T18:26:02.745Z,13.87
2023-04-04T18:28:29.784Z,13.86
2023-04-04T18:30:56.598Z,13.83
2023-04-04T18:33:25.197Z,13.81
2023-04-04T18:35:52.081Z,13.79
2023-04-04T18:38:19.180Z,13.75
2023-04-04T18:40:46.731Z,13.73
2023-04-04T18:43:14.019Z,13.72
2023-04-04T18:45:41.701Z,13.70
2023-04-04T18:48:09.145Z,13.67
2023-04-04T18:50:36.221Z,13.63
2023-04-04T18:53:03.136Z,13.58
2023-04-04T18:55:29.932Z,13.48
2023-04-04T18:57:57.648Z,13.43
2023-04-04T19:00:24.954Z,13.34
2023-04-04T19:02:51.938Z,13.35
2023-04-04T19:05:24.540Z,13.30
2023-04-04T19:07:55.348Z,13.29
2023-04-04T19:10:22.541Z,13.25
2023-04-04T19:12:49.357Z,13.22
2023-04-04T19:15:16.531Z,13.28
2023-04-04T19:17:43.419Z,13.23
2023-04-04T19:20:11.285Z,13.24
2023-04-04T19:22:38.288Z,13.21
2023-04-04T19:25:05.637Z,13.16
2023-04-04T19:27:32.472Z,13.06
2023-04-04T19:29:59.310Z,12.96
2023-04-04T19:32:28.459Z,12.88
2023-04-04T19:34:56.507Z,12.76
2023-04-04T19:37:24.673Z,12.72
2023-04-04T19:39:51.523Z,12.68
2023-04-04T19:42:19.566Z,12.61
2023-04-04T19:44:46.359Z,12.64
2023-04-04T19:47:19.031Z,12.65
2023-04-04T19:49:45.906Z,12.58
2023-04-04T19:52:13.768Z,12.54
2023-04-04T19:54:43.006Z,12.58
2023-04-04T19:57:19.598Z,12.59
2023-04-04T20:38:59.586Z,12.07
2023-04-04T20:41:27.558Z,12.07
2023-04-04T20:43:59.249Z,12.04
2023-04-04T20:46:35.584Z,12.06
2023-04-04T20:49:02.756Z,11.96
2023-04-04T20:51:31.859Z,11.98
2023-04-04T20:54:02.615Z,12.03
2023-04-04T20:56:38.728Z,12.08
2023-04-04T20:59:43.622Z,12.07
2023-04-04T21:02:14.719Z,11.95
2023-04-04T21:04:42.980Z,11.93
2023-04-04T21:07:42.869Z,11.83
2023-04-04T21:10:36.718Z,11.86
2023-04-04T21:13:06.500Z,11.77
2023-04-04T21:15:39.593Z,11.80
2023-04-04T21:18:12.289Z,11.80
2023-04-04T21:21:05.013Z,11.72
2023-04-04T21:23:35.632Z,11.83
